sensor_id;sensor_type;location;lat;lon;timestamp;temperature;humidity
33715;DHT22;20043;50.998;4.754;2022-08-03T00:01:24;22.40;99.90
33715;DHT22;20043;50.998;4.754;2022-08-03T00:03:49;22.50;99.90
33715;DHT22;20043;50.998;4.754;2022-08-03T00:06:15;22.40;99.90
33715;DHT22;20043;50.998;4.754;2022-08-03T00:08:40;22.30;99.90
33715;DHT22;20043;50.998;4.754;2022-08-03T00:11:06;22.40;99.90
33715;DHT22;20043;50.998;4.754;2022-08-03T00:13:32;22.30;99.90
33715;DHT22;20043;50.998;4.754;2022-08-03T00:15:58;22.10;99.90
33715;DHT22;20043;50.998;4.754;2022-08-03T00:18:24;22.10;99.90
33715;DHT22;20043;50.998;4.754;2022-08-03T00:20:49;22.10;99.90
33715;DHT22;20043;50.998;4.754;2022-08-03T00:23:15;22.10;99.90
33715;DHT22;20043;50.998;4.754;2022-08-03T00:25:41;22.20;99.90
33715;DHT22;20043;50.998;4.754;2022-08-03T00:28:07;22.20;99.90
33715;DHT22;20043;50.998;4.754;2022-08-03T00:30:34;22.20;99.90
33715;DHT22;20043;50.998;4.754;2022-08-03T00:33:00;22.20;99.90
33715;DHT22;20043;50.998;4.754;2022-08-03T00:35:26;22.20;99.90
33715;DHT22;20043;50.998;4.754;2022-08-03T00:37:51;22.00;99.90
33715;DHT22;20043;50.998;4.754;2022-08-03T00:40:18;22.00;99.90
33715;DHT22;20043;50.998;4.754;2022-08-03T00:42:58;21.90;99.90
33715;DHT22;20043;50.998;4.754;2022-08-03T00:45:27;21.90;99.90
33715;DHT22;20043;50.998;4.754;2022-08-03T00:47:53;21.90;99.90
33715;DHT22;20043;50.998;4.754;2022-08-03T00:50:20;21.90;99.90
33715;DHT22;20043;50.998;4.754;2022-08-03T00:52:47;21.90;99.90
33715;DHT22;20043;50.998;4.754;2022-08-03T00:55:13;21.90;99.90
33715;DHT22;20043;50.998;4.754;2022-08-03T00:57:39;21.80;99.90
33715;DHT22;20043;50.998;4.754;2022-08-03T01:00:06;21.80;99.90
33715;DHT22;20043;50.998;4.754;2022-08-03T01:02:33;21.80;99.90
33715;DHT22;20043;50.998;4.754;2022-08-03T01:04:58;21.80;99.90
33715;DHT22;20043;50.998;4.754;2022-08-03T01:08:04;21.70;99.90
33715;DHT22;20043;50.998;4.754;2022-08-03T01:15:46;21.80;99.90
33715;DHT22;20043;50.998;4.754;2022-08-03T01:19:03;21.70;99.90
33715;DHT22;20043;50.998;4.754;2022-08-03T01:24:39;21.60;99.90
33715;DHT22;20043;50.998;4.754;2022-08-03T01:27:12;21.60;99.90
33715;DHT22;20043;50.998;4.754;2022-08-03T01:32:30;21.40;99.90
33715;DHT22;20043;50.998;4.754;2022-08-03T01:35:01;21.40;99.90
33715;DHT22;20043;50.998;4.754;2022-08-03T01:37:51;21.40;99.90
33715;DHT22;20043;50.998;4.754;2022-08-03T01:40:18;21.30;99.90
33715;DHT22;20043;50.998;4.754;2022-08-03T01:42:45;21.20;99.90
33715;DHT22;20043;50.998;4.754;2022-08-03T01:45:13;21.20;99.90
33715;DHT22;20043;50.998;4.754;2022-08-03T01:47:40;21.30;99.90
33715;DHT22;20043;50.998;4.754;2022-08-03T01:50:08;21.30;99.90
33715;DHT22;20043;50.998;4.754;2022-08-03T01:52:37;21.20;99.90
33715;DHT22;20043;50.998;4.754;2022-08-03T01:55:05;21.20;99.90
33715;DHT22;20043;50.998;4.754;2022-08-03T01:57:32;21.20;99.90
33715;DHT22;20043;50.998;4.754;2022-08-03T01:59:59;21.20;99.90
33715;DHT22;20043;50.998;4.754;2022-08-03T02:02:25;21.10;99.90
33715;DHT22;20043;50.998;4.754;2022-08-03T02:04:53;21.00;99.90
33715;DHT22;20043;50.998;4.754;2022-08-03T02:07:20;21.00;99.90
33715;DHT22;20043;50.998;4.754;2022-08-03T02:09:48;21.10;99.90
33715;DHT22;20043;50.998;4.754;2022-08-03T02:12:15;21.20;99.90
33715;DHT22;20043;50.998;4.754;2022-08-03T02:14:43;21.10;99.90
33715;DHT22;20043;50.998;4.754;2022-08-03T02:17:11;21.00;99.90
33715;DHT22;20043;50.998;4.754;2022-08-03T02:19:39;21.00;99.90
33715;DHT22;20043;50.998;4.754;2022-08-03T02:22:08;21.00;99.90
33715;DHT22;20043;50.998;4.754;2022-08-03T02:24:34;21.00;99.90
33715;DHT22;20043;50.998;4.754;2022-08-03T02:27:02;21.10;99.90
33715;DHT22;20043;50.998;4.754;2022-08-03T02:29:32;21.00;99.90
33715;DHT22;20043;50.998;4.754;2022-08-03T02:31:59;21.00;99.90
33715;DHT22;20043;50.998;4.754;2022-08-03T02:34:28;20.90;99.90
33715;DHT22;20043;50.998;4.754;2022-08-03T02:36:57;20.90;99.90
33715;DHT22;20043;50.998;4.754;2022-08-03T02:39:27;20.80;99.90
33715;DHT22;20043;50.998;4.754;2022-08-03T02:41:55;20.80;99.90
33715;DHT22;20043;50.998;4.754;2022-08-03T02:44:27;20.70;99.90
33715;DHT22;20043;50.998;4.754;2022-08-03T02:47:02;20.70;99.90
33715;DHT22;20043;50.998;4.754;2022-08-03T02:49:30;20.50;99.90
33715;DHT22;20043;50.998;4.754;2022-08-03T02:51:56;20.40;99.90
33715;DHT22;20043;50.998;4.754;2022-08-03T02:54:24;20.40;99.90
33715;DHT22;20043;50.998;4.754;2022-08-03T02:56:51;20.40;99.90
33715;DHT22;20043;50.998;4.754;2022-08-03T02:59:19;20.30;99.90
33715;DHT22;20043;50.998;4.754;2022-08-03T03:01:45;20.20;99.90
33715;DHT22;20043;50.998;4.754;2022-08-03T03:04:12;20.30;99.90
33715;DHT22;20043;50.998;4.754;2022-08-03T03:06:39;20.30;99.90
33715;DHT22;20043;50.998;4.754;2022-08-03T03:09:05;20.40;99.90
33715;DHT22;20043;50.998;4.754;2022-08-03T03:11:33;20.40;99.90
33715;DHT22;20043;50.998;4.754;2022-08-03T03:14:01;20.40;99.90
33715;DHT22;20043;50.998;4.754;2022-08-03T03:16:28;20.40;99.90
33715;DHT22;20043;50.998;4.754;2022-08-03T03:18:55;20.40;99.90
33715;DHT22;20043;50.998;4.754;2022-08-03T03:21:22;20.40;99.90
33715;DHT22;20043;50.998;4.754;2022-08-03T03:23:49;20.40;99.90
33715;DHT22;20043;50.998;4.754;2022-08-03T03:26:15;20.50;99.90
33715;DHT22;20043;50.998;4.754;2022-08-03T03:28:41;20.40;99.90
33715;DHT22;20043;50.998;4.754;2022-08-03T03:31:07;20.30;99.90
33715;DHT22;20043;50.998;4.754;2022-08-03T03:33:34;20.40;99.90
33715;DHT22;20043;50.998;4.754;2022-08-03T03:36:00;20.40;99.90
33715;DHT22;20043;50.998;4.754;2022-08-03T03:38:26;20.30;99.90
33715;DHT22;20043;50.998;4.754;2022-08-03T03:40:53;20.20;99.90
33715;DHT22;20043;50.998;4.754;2022-08-03T03:43:19;20.20;99.90
33715;DHT22;20043;50.998;4.754;2022-08-03T03:45:47;20.10;99.90
33715;DHT22;20043;50.998;4.754;2022-08-03T03:48:13;20.10;99.90
33715;DHT22;20043;50.998;4.754;2022-08-03T03:50:39;20.00;99.90
33715;DHT22;20043;50.998;4.754;2022-08-03T03:53:08;20.10;99.90
33715;DHT22;20043;50.998;4.754;2022-08-03T03:55:35;20.20;99.90
33715;DHT22;20043;50.998;4.754;2022-08-03T03:58:00;20.10;99.90
33715;DHT22;20043;50.998;4.754;2022-08-03T04:00:28;20.00;99.90
33715;DHT22;20043;50.998;4.754;2022-08-03T04:02:53;20.00;99.90
33715;DHT22;20043;50.998;4.754;2022-08-03T04:05:19;20.00;99.90
33715;DHT22;20043;50.998;4.754;2022-08-03T04:08:07;20.00;99.90
33715;DHT22;20043;50.998;4.754;2022-08-03T04:11:21;19.90;99.90
33715;DHT22;20043;50.998;4.754;2022-08-03T04:16:23;20.00;99.90
33715;DHT22;20043;50.998;4.754;2022-08-03T04:18:54;19.90;99.90
33715;DHT22;20043;50.998;4.754;2022-08-03T04:21:21;19.90;99.90
33715;DHT22;20043;50.998;4.754;2022-08-03T04:23:52;19.80;99.90
33715;DHT22;20043;50.998;4.754;2022-08-03T04:26:21;19.80;99.90
33715;DHT22;20043;50.998;4.754;2022-08-03T04:28:50;19.90;99.90
33715;DHT22;20043;50.998;4.754;2022-08-03T04:31:20;19.90;99.90
33715;DHT22;20043;50.998;4.754;2022-08-03T04:33:47;19.80;99.90
33715;DHT22;20043;50.998;4.754;2022-08-03T04:36:17;19.80;99.90
33715;DHT22;20043;50.998;4.754;2022-08-03T04:39:00;19.80;99.90
33715;DHT22;20043;50.998;4.754;2022-08-03T04:41:34;19.90;99.90
33715;DHT22;20043;50.998;4.754;2022-08-03T04:44:01;19.90;99.90
33715;DHT22;20043;50.998;4.754;2022-08-03T04:46:33;20.00;99.90
33715;DHT22;20043;50.998;4.754;2022-08-03T04:49:00;20.00;99.90
33715;DHT22;20043;50.998;4.754;2022-08-03T04:51:26;20.00;99.90
33715;DHT22;20043;50.998;4.754;2022-08-03T04:53:52;20.10;99.90
33715;DHT22;20043;50.998;4.754;2022-08-03T04:56:18;20.30;99.90
33715;DHT22;20043;50.998;4.754;2022-08-03T04:58:44;20.70;99.90
33715;DHT22;20043;50.998;4.754;2022-08-03T05:01:09;21.00;99.90
33715;DHT22;20043;50.998;4.754;2022-08-03T05:03:35;21.40;99.90
33715;DHT22;20043;50.998;4.754;2022-08-03T05:06:01;21.80;99.90
33715;DHT22;20043;50.998;4.754;2022-08-03T05:08:27;22.20;99.90
33715;DHT22;20043;50.998;4.754;2022-08-03T05:10:53;22.70;99.90
33715;DHT22;20043;50.998;4.754;2022-08-03T05:13:19;23.10;99.90
33715;DHT22;20043;50.998;4.754;2022-08-03T05:15:45;23.60;99.90
33715;DHT22;20043;50.998;4.754;2022-08-03T05:18:10;24.10;99.90
33715;DHT22;20043;50.998;4.754;2022-08-03T05:20:36;24.50;99.90
33715;DHT22;20043;50.998;4.754;2022-08-03T05:23:01;25.10;99.90
33715;DHT22;20043;50.998;4.754;2022-08-03T05:25:29;25.60;99.90
33715;DHT22;20043;50.998;4.754;2022-08-03T05:27:54;26.10;99.90
33715;DHT22;20043;50.998;4.754;2022-08-03T05:30:20;26.60;99.90
33715;DHT22;20043;50.998;4.754;2022-08-03T05:32:46;26.90;99.90
33715;DHT22;20043;50.998;4.754;2022-08-03T05:35:11;27.10;99.90
33715;DHT22;20043;50.998;4.754;2022-08-03T05:37:37;27.30;99.90
33715;DHT22;20043;50.998;4.754;2022-08-03T05:40:04;27.50;99.90
33715;DHT22;20043;50.998;4.754;2022-08-03T05:42:36;27.70;99.90
33715;DHT22;20043;50.998;4.754;2022-08-03T05:45:05;27.90;99.90
33715;DHT22;20043;50.998;4.754;2022-08-03T05:47:42;28.10;99.90
33715;DHT22;20043;50.998;4.754;2022-08-03T05:50:11;28.30;99.90
33715;DHT22;20043;50.998;4.754;2022-08-03T05:52:38;28.50;99.90
33715;DHT22;20043;50.998;4.754;2022-08-03T05:55:05;28.30;99.90
33715;DHT22;20043;50.998;4.754;2022-08-03T05:57:31;28.20;99.90
33715;DHT22;20043;50.998;4.754;2022-08-03T05:59:57;28.40;99.90
33715;DHT22;20043;50.998;4.754;2022-08-03T06:02:22;28.40;99.90
33715;DHT22;20043;50.998;4.754;2022-08-03T06:04:48;28.50;99.90
33715;DHT22;20043;50.998;4.754;2022-08-03T06:07:14;28.50;99.90
33715;DHT22;20043;50.998;4.754;2022-08-03T06:09:39;28.40;99.90
33715;DHT22;20043;50.998;4.754;2022-08-03T06:12:06;28.50;99.90
33715;DHT22;20043;50.998;4.754;2022-08-03T06:14:32;28.50;99.90
33715;DHT22;20043;50.998;4.754;2022-08-03T06:16:57;28.60;99.90
33715;DHT22;20043;50.998;4.754;2022-08-03T06:19:23;28.40;99.90
33715;DHT22;20043;50.998;4.754;2022-08-03T06:21:49;28.30;99.90
33715;DHT22;20043;50.998;4.754;2022-08-03T06:24:15;28.30;99.90
33715;DHT22;20043;50.998;4.754;2022-08-03T06:26:41;28.30;99.90
33715;DHT22;20043;50.998;4.754;2022-08-03T06:29:06;28.20;99.90
33715;DHT22;20043;50.998;4.754;2022-08-03T06:31:32;28.10;99.90
33715;DHT22;20043;50.998;4.754;2022-08-03T06:33:58;28.20;99.90
33715;DHT22;20043;50.998;4.754;2022-08-03T06:36:24;28.20;99.90
33715;DHT22;20043;50.998;4.754;2022-08-03T06:38:56;28.10;99.90
33715;DHT22;20043;50.998;4.754;2022-08-03T06:41:22;28.20;99.90
33715;DHT22;20043;50.998;4.754;2022-08-03T06:43:47;28.50;99.90
33715;DHT22;20043;50.998;4.754;2022-08-03T06:46:13;28.50;99.90
33715;DHT22;20043;50.998;4.754;2022-08-03T06:48:39;28.50;99.90
33715;DHT22;20043;50.998;4.754;2022-08-03T06:51:04;28.20;99.90
33715;DHT22;20043;50.998;4.754;2022-08-03T06:53:30;28.30;99.90
33715;DHT22;20043;50.998;4.754;2022-08-03T06:55:55;27.90;99.90
33715;DHT22;20043;50.998;4.754;2022-08-03T06:58:21;27.70;99.90
33715;DHT22;20043;50.998;4.754;2022-08-03T07:00:47;27.50;99.90
33715;DHT22;20043;50.998;4.754;2022-08-03T07:03:12;27.40;99.90
33715;DHT22;20043;50.998;4.754;2022-08-03T07:05:40;27.30;99.90
33715;DHT22;20043;50.998;4.754;2022-08-03T07:08:06;27.30;99.90
33715;DHT22;20043;50.998;4.754;2022-08-03T07:10:32;27.20;99.90
33715;DHT22;20043;50.998;4.754;2022-08-03T07:12:57;27.20;99.90
33715;DHT22;20043;50.998;4.754;2022-08-03T07:15:24;27.10;99.90
33715;DHT22;20043;50.998;4.754;2022-08-03T07:17:49;26.90;99.90
33715;DHT22;20043;50.998;4.754;2022-08-03T07:20:15;26.90;99.90
33715;DHT22;20043;50.998;4.754;2022-08-03T07:22:43;26.80;99.90
33715;DHT22;20043;50.998;4.754;2022-08-03T07:25:09;26.80;99.90
33715;DHT22;20043;50.998;4.754;2022-08-03T07:27:35;26.70;99.90
33715;DHT22;20043;50.998;4.754;2022-08-03T07:30:01;26.80;99.90
33715;DHT22;20043;50.998;4.754;2022-08-03T07:32:29;26.90;99.90
33715;DHT22;20043;50.998;4.754;2022-08-03T07:34:56;27.00;99.90
33715;DHT22;20043;50.998;4.754;2022-08-03T07:37:21;26.80;99.90
33715;DHT22;20043;50.998;4.754;2022-08-03T07:39:47;26.70;99.90
33715;DHT22;20043;50.998;4.754;2022-08-03T07:42:13;26.50;99.90
33715;DHT22;20043;50.998;4.754;2022-08-03T07:44:39;26.40;99.90
33715;DHT22;20043;50.998;4.754;2022-08-03T07:47:04;26.40;99.90
33715;DHT22;20043;50.998;4.754;2022-08-03T07:49:30;26.50;99.90
33715;DHT22;20043;50.998;4.754;2022-08-03T07:51:56;26.50;99.90
33715;DHT22;20043;50.998;4.754;2022-08-03T07:54:40;26.70;99.90
33715;DHT22;20043;50.998;4.754;2022-08-03T07:57:06;26.90;99.90
33715;DHT22;20043;50.998;4.754;2022-08-03T07:59:31;27.00;99.90
33715;DHT22;20043;50.998;4.754;2022-08-03T08:01:59;26.70;99.90
33715;DHT22;20043;50.998;4.754;2022-08-03T08:04:25;26.70;99.90
33715;DHT22;20043;50.998;4.754;2022-08-03T08:06:50;26.90;99.90
33715;DHT22;20043;50.998;4.754;2022-08-03T08:09:16;27.10;99.90
33715;DHT22;20043;50.998;4.754;2022-08-03T08:11:41;27.20;99.90
33715;DHT22;20043;50.998;4.754;2022-08-03T08:14:07;27.30;99.90
33715;DHT22;20043;50.998;4.754;2022-08-03T08:16:34;27.30;99.90
33715;DHT22;20043;50.998;4.754;2022-08-03T08:18:59;27.30;99.90
33715;DHT22;20043;50.998;4.754;2022-08-03T08:21:26;27.50;99.90
33715;DHT22;20043;50.998;4.754;2022-08-03T08:23:52;27.60;99.90
33715;DHT22;20043;50.998;4.754;2022-08-03T08:26:17;27.50;99.90
33715;DHT22;20043;50.998;4.754;2022-08-03T08:28:43;27.50;99.90
33715;DHT22;20043;50.998;4.754;2022-08-03T08:31:08;27.50;99.90
33715;DHT22;20043;50.998;4.754;2022-08-03T08:33:34;27.70;99.90
33715;DHT22;20043;50.998;4.754;2022-08-03T08:36:00;27.90;99.90
33715;DHT22;20043;50.998;4.754;2022-08-03T08:38:26;28.10;99.90
33715;DHT22;20043;50.998;4.754;2022-08-03T08:40:54;28.20;99.90
33715;DHT22;20043;50.998;4.754;2022-08-03T08:43:20;28.10;99.90
33715;DHT22;20043;50.998;4.754;2022-08-03T08:45:48;28.10;99.90
33715;DHT22;20043;50.998;4.754;2022-08-03T08:48:14;28.10;99.90
33715;DHT22;20043;50.998;4.754;2022-08-03T08:50:42;28.10;99.90
33715;DHT22;20043;50.998;4.754;2022-08-03T08:53:11;28.10;99.90
33715;DHT22;20043;50.998;4.754;2022-08-03T08:55:38;28.10;99.90
33715;DHT22;20043;50.998;4.754;2022-08-03T08:58:05;28.40;99.90
33715;DHT22;20043;50.998;4.754;2022-08-03T09:00:32;28.60;99.90
33715;DHT22;20043;50.998;4.754;2022-08-03T09:02:59;28.70;99.80
33715;DHT22;20043;50.998;4.754;2022-08-03T09:05:25;28.70;99.70
33715;DHT22;20043;50.998;4.754;2022-08-03T09:07:51;28.60;99.90
33715;DHT22;20043;50.998;4.754;2022-08-03T09:10:17;28.70;99.90
33715;DHT22;20043;50.998;4.754;2022-08-03T09:12:50;28.60;99.90
33715;DHT22;20043;50.998;4.754;2022-08-03T09:15:27;28.80;99.90
33715;DHT22;20043;50.998;4.754;2022-08-03T09:17:55;28.90;99.90
33715;DHT22;20043;50.998;4.754;2022-08-03T09:20:23;29.00;98.90
33715;DHT22;20043;50.998;4.754;2022-08-03T09:22:57;29.10;99.10
33715;DHT22;20043;50.998;4.754;2022-08-03T09:25:36;29.30;99.30
33715;DHT22;20043;50.998;4.754;2022-08-03T09:28:10;29.50;98.80
33715;DHT22;20043;50.998;4.754;2022-08-03T09:30:37;29.50;98.70
33715;DHT22;20043;50.998;4.754;2022-08-03T09:33:08;29.50;98.20
33715;DHT22;20043;50.998;4.754;2022-08-03T09:35:45;29.70;98.20
33715;DHT22;20043;50.998;4.754;2022-08-03T09:38:16;29.80;98.40
33715;DHT22;20043;50.998;4.754;2022-08-03T09:40:43;29.90;98.60
33715;DHT22;20043;50.998;4.754;2022-08-03T09:43:10;30.00;98.60
33715;DHT22;20043;50.998;4.754;2022-08-03T09:45:39;30.20;97.80
33715;DHT22;20043;50.998;4.754;2022-08-03T09:48:31;30.20;98.20
33715;DHT22;20043;50.998;4.754;2022-08-03T09:51:03;30.40;98.30
33715;DHT22;20043;50.998;4.754;2022-08-03T09:53:29;30.30;96.90
33715;DHT22;20043;50.998;4.754;2022-08-03T09:55:59;30.30;97.60
33715;DHT22;20043;50.998;4.754;2022-08-03T09:58:27;30.30;97.20
33715;DHT22;20043;50.998;4.754;2022-08-03T10:01:01;30.20;97.40
33715;DHT22;20043;50.998;4.754;2022-08-03T10:03:30;30.20;97.20
33715;DHT22;20043;50.998;4.754;2022-08-03T10:05:57;30.30;97.30
33715;DHT22;20043;50.998;4.754;2022-08-03T10:08:23;30.50;97.50
33715;DHT22;20043;50.998;4.754;2022-08-03T10:10:50;30.60;97.60
33715;DHT22;20043;50.998;4.754;2022-08-03T10:13:20;30.60;97.00
33715;DHT22;20043;50.998;4.754;2022-08-03T10:15:46;30.70;97.40
33715;DHT22;20043;50.998;4.754;2022-08-03T10:18:12;30.80;96.90
33715;DHT22;20043;50.998;4.754;2022-08-03T10:20:49;31.00;96.80
33715;DHT22;20043;50.998;4.754;2022-08-03T10:23:16;31.00;96.50
33715;DHT22;20043;50.998;4.754;2022-08-03T10:25:45;30.80;97.20
33715;DHT22;20043;50.998;4.754;2022-08-03T10:28:14;30.90;96.60
33715;DHT22;20043;50.998;4.754;2022-08-03T10:30:43;31.10;97.00
33715;DHT22;20043;50.998;4.754;2022-08-03T10:33:23;31.20;96.60
33715;DHT22;20043;50.998;4.754;2022-08-03T10:35:55;31.50;96.30
33715;DHT22;20043;50.998;4.754;2022-08-03T10:38:57;31.70;96.30
33715;DHT22;20043;50.998;4.754;2022-08-03T10:41:20;31.90;95.80
33715;DHT22;20043;50.998;4.754;2022-08-03T10:44:07;32.00;95.10
33715;DHT22;20043;50.998;4.754;2022-08-03T10:46:35;32.00;95.40
33715;DHT22;20043;50.998;4.754;2022-08-03T10:49:03;32.20;95.30
33715;DHT22;20043;50.998;4.754;2022-08-03T10:51:30;32.30;95.30
33715;DHT22;20043;50.998;4.754;2022-08-03T10:53:57;32.30;94.90
33715;DHT22;20043;50.998;4.754;2022-08-03T11:02:01;32.30;94.40
33715;DHT22;20043;50.998;4.754;2022-08-03T11:04:27;32.20;93.90
33715;DHT22;20043;50.998;4.754;2022-08-03T11:09:49;32.50;94.30
33715;DHT22;20043;50.998;4.754;2022-08-03T11:14:48;32.20;93.70
33715;DHT22;20043;50.998;4.754;2022-08-03T11:17:15;32.00;93.60
33715;DHT22;20043;50.998;4.754;2022-08-03T11:19:48;32.00;94.40
33715;DHT22;20043;50.998;4.754;2022-08-03T11:22:15;32.00;94.10
33715;DHT22;20043;50.998;4.754;2022-08-03T11:27:17;32.10;94.00
33715;DHT22;20043;50.998;4.754;2022-08-03T11:35:28;32.40;93.80
33715;DHT22;20043;50.998;4.754;2022-08-03T11:40:51;32.70;92.90
33715;DHT22;20043;50.998;4.754;2022-08-03T11:46:00;32.90;93.10
33715;DHT22;20043;50.998;4.754;2022-08-03T11:48:28;33.10;92.70
33715;DHT22;20043;50.998;4.754;2022-08-03T11:51:01;33.10;91.70
33715;DHT22;20043;50.998;4.754;2022-08-03T11:53:26;33.20;93.00
33715;DHT22;20043;50.998;4.754;2022-08-03T11:55:52;33.30;92.30
33715;DHT22;20043;50.998;4.754;2022-08-03T11:58:22;33.50;91.40
33715;DHT22;20043;50.998;4.754;2022-08-03T12:00:49;33.50;91.70
33715;DHT22;20043;50.998;4.754;2022-08-03T12:03:17;33.60;92.20
33715;DHT22;20043;50.998;4.754;2022-08-03T12:05:48;33.60;91.30
33715;DHT22;20043;50.998;4.754;2022-08-03T12:08:17;33.70;91.30
33715;DHT22;20043;50.998;4.754;2022-08-03T12:10:49;33.40;90.80
33715;DHT22;20043;50.998;4.754;2022-08-03T12:13:15;33.50;91.70
33715;DHT22;20043;50.998;4.754;2022-08-03T12:15:41;33.70;91.60
33715;DHT22;20043;50.998;4.754;2022-08-03T12:18:17;33.80;91.90
33715;DHT22;20043;50.998;4.754;2022-08-03T12:20:44;34.00;90.90
33715;DHT22;20043;50.998;4.754;2022-08-03T12:23:10;34.00;90.60
33715;DHT22;20043;50.998;4.754;2022-08-03T12:25:37;34.10;90.20
33715;DHT22;20043;50.998;4.754;2022-08-03T12:30:41;34.10;90.70
33715;DHT22;20043;50.998;4.754;2022-08-03T12:33:26;34.10;89.60
33715;DHT22;20043;50.998;4.754;2022-08-03T12:36:07;33.90;89.20
33715;DHT22;20043;50.998;4.754;2022-08-03T12:38:34;33.80;89.30
33715;DHT22;20043;50.998;4.754;2022-08-03T12:41:03;33.80;90.40
33715;DHT22;20043;50.998;4.754;2022-08-03T12:43:29;33.90;89.50
33715;DHT22;20043;50.998;4.754;2022-08-03T12:46:12;33.80;89.80
33715;DHT22;20043;50.998;4.754;2022-08-03T12:48:57;33.70;90.10
33715;DHT22;20043;50.998;4.754;2022-08-03T12:51:24;33.50;90.90
33715;DHT22;20043;50.998;4.754;2022-08-03T12:53:53;33.50;91.40
33715;DHT22;20043;50.998;4.754;2022-08-03T12:56:19;33.70;90.20
33715;DHT22;20043;50.998;4.754;2022-08-03T12:58:45;33.90;88.30
33715;DHT22;20043;50.998;4.754;2022-08-03T13:01:12;33.80;89.00
33715;DHT22;20043;50.998;4.754;2022-08-03T13:03:48;33.80;88.60
33715;DHT22;20043;50.998;4.754;2022-08-03T13:06:19;33.70;88.40
33715;DHT22;20043;50.998;4.754;2022-08-03T13:08:45;33.70;89.60
33715;DHT22;20043;50.998;4.754;2022-08-03T13:13:48;33.60;88.70
33715;DHT22;20043;50.998;4.754;2022-08-03T13:16:14;33.60;90.10
33715;DHT22;20043;50.998;4.754;2022-08-03T13:18:40;34.00;88.70
33715;DHT22;20043;50.998;4.754;2022-08-03T13:21:14;34.20;90.20
33715;DHT22;20043;50.998;4.754;2022-08-03T13:23:40;34.30;87.20
33715;DHT22;20043;50.998;4.754;2022-08-03T13:26:06;34.30;86.10
33715;DHT22;20043;50.998;4.754;2022-08-03T13:28:31;34.40;87.60
33715;DHT22;20043;50.998;4.754;2022-08-03T13:30:57;34.50;87.50
33715;DHT22;20043;50.998;4.754;2022-08-03T13:33:23;34.70;86.70
33715;DHT22;20043;50.998;4.754;2022-08-03T13:35:48;34.60;85.10
33715;DHT22;20043;50.998;4.754;2022-08-03T13:38:14;34.50;85.30
33715;DHT22;20043;50.998;4.754;2022-08-03T13:40:39;34.60;84.90
33715;DHT22;20043;50.998;4.754;2022-08-03T13:43:05;34.50;85.80
33715;DHT22;20043;50.998;4.754;2022-08-03T13:45:30;34.50;86.80
33715;DHT22;20043;50.998;4.754;2022-08-03T13:47:56;34.40;86.30
33715;DHT22;20043;50.998;4.754;2022-08-03T13:50:22;34.60;85.20
33715;DHT22;20043;50.998;4.754;2022-08-03T13:52:47;34.70;84.70
33715;DHT22;20043;50.998;4.754;2022-08-03T13:55:13;34.50;85.20
33715;DHT22;20043;50.998;4.754;2022-08-03T13:57:38;34.50;86.10
33715;DHT22;20043;50.998;4.754;2022-08-03T14:00:05;34.60;86.70
33715;DHT22;20043;50.998;4.754;2022-08-03T14:02:31;34.90;83.60
33715;DHT22;20043;50.998;4.754;2022-08-03T14:04:56;34.80;84.00
33715;DHT22;20043;50.998;4.754;2022-08-03T14:07:22;34.70;82.00
33715;DHT22;20043;50.998;4.754;2022-08-03T14:09:47;34.80;86.10
33715;DHT22;20043;50.998;4.754;2022-08-03T14:12:13;34.80;82.20
33715;DHT22;20043;50.998;4.754;2022-08-03T14:14:39;34.80;81.70
33715;DHT22;20043;50.998;4.754;2022-08-03T14:17:04;34.80;81.50
33715;DHT22;20043;50.998;4.754;2022-08-03T14:19:30;34.70;83.20
33715;DHT22;20043;50.998;4.754;2022-08-03T14:21:57;34.60;82.90
33715;DHT22;20043;50.998;4.754;2022-08-03T14:24:22;34.50;82.90
33715;DHT22;20043;50.998;4.754;2022-08-03T14:26:48;34.30;83.90
33715;DHT22;20043;50.998;4.754;2022-08-03T14:29:14;34.10;83.60
33715;DHT22;20043;50.998;4.754;2022-08-03T14:31:39;34.00;84.90
33715;DHT22;20043;50.998;4.754;2022-08-03T14:34:05;34.30;83.20
33715;DHT22;20043;50.998;4.754;2022-08-03T14:36:30;34.50;82.80
33715;DHT22;20043;50.998;4.754;2022-08-03T14:38:56;34.60;82.80
33715;DHT22;20043;50.998;4.754;2022-08-03T14:41:22;34.70;81.30
33715;DHT22;20043;50.998;4.754;2022-08-03T14:43:47;34.70;82.80
33715;DHT22;20043;50.998;4.754;2022-08-03T14:46:13;34.80;82.10
33715;DHT22;20043;50.998;4.754;2022-08-03T14:48:39;34.80;81.20
33715;DHT22;20043;50.998;4.754;2022-08-03T14:51:05;34.70;81.00
33715;DHT22;20043;50.998;4.754;2022-08-03T14:53:30;34.60;80.70
33715;DHT22;20043;50.998;4.754;2022-08-03T14:55:57;34.60;80.50
33715;DHT22;20043;50.998;4.754;2022-08-03T14:58:23;34.50;80.80
33715;DHT22;20043;50.998;4.754;2022-08-03T15:00:53;34.50;83.60
33715;DHT22;20043;50.998;4.754;2022-08-03T15:03:20;34.50;81.80
33715;DHT22;20043;50.998;4.754;2022-08-03T15:05:48;34.60;80.40
33715;DHT22;20043;50.998;4.754;2022-08-03T15:08:14;34.70;79.20
33715;DHT22;20043;50.998;4.754;2022-08-03T15:10:47;34.70;80.80
33715;DHT22;20043;50.998;4.754;2022-08-03T15:13:13;34.70;79.80
33715;DHT22;20043;50.998;4.754;2022-08-03T15:15:39;34.70;80.70
33715;DHT22;20043;50.998;4.754;2022-08-03T15:18:05;34.60;80.00
33715;DHT22;20043;50.998;4.754;2022-08-03T15:20:31;34.60;80.40
33715;DHT22;20043;50.998;4.754;2022-08-03T15:22:56;34.60;80.30
33715;DHT22;20043;50.998;4.754;2022-08-03T15:25:22;34.80;81.20
33715;DHT22;20043;50.998;4.754;2022-08-03T15:27:47;34.80;79.60
33715;DHT22;20043;50.998;4.754;2022-08-03T15:30:13;34.60;78.40
33715;DHT22;20043;50.998;4.754;2022-08-03T15:32:39;34.70;80.30
33715;DHT22;20043;50.998;4.754;2022-08-03T15:35:05;34.70;81.50
33715;DHT22;20043;50.998;4.754;2022-08-03T15:37:30;34.60;79.50
33715;DHT22;20043;50.998;4.754;2022-08-03T15:39:56;34.60;80.10
33715;DHT22;20043;50.998;4.754;2022-08-03T15:42:22;34.70;80.00
33715;DHT22;20043;50.998;4.754;2022-08-03T15:44:47;34.60;80.40
33715;DHT22;20043;50.998;4.754;2022-08-03T15:47:13;34.70;80.70
33715;DHT22;20043;50.998;4.754;2022-08-03T15:49:38;34.60;78.60
33715;DHT22;20043;50.998;4.754;2022-08-03T15:52:04;34.80;79.30
33715;DHT22;20043;50.998;4.754;2022-08-03T15:54:30;34.70;80.00
33715;DHT22;20043;50.998;4.754;2022-08-03T15:56:55;34.90;79.20
33715;DHT22;20043;50.998;4.754;2022-08-03T15:59:21;34.80;80.30
33715;DHT22;20043;50.998;4.754;2022-08-03T16:01:47;34.70;78.70
33715;DHT22;20043;50.998;4.754;2022-08-03T16:04:13;34.90;80.80
33715;DHT22;20043;50.998;4.754;2022-08-03T16:06:38;35.10;78.20
33715;DHT22;20043;50.998;4.754;2022-08-03T16:09:05;35.20;78.40
33715;DHT22;20043;50.998;4.754;2022-08-03T16:11:31;35.20;79.00
33715;DHT22;20043;50.998;4.754;2022-08-03T16:13:57;35.20;78.10
33715;DHT22;20043;50.998;4.754;2022-08-03T16:16:22;35.20;76.10
33715;DHT22;20043;50.998;4.754;2022-08-03T16:18:48;35.10;77.60